Time;durP1;ratioP1;P1;durP2;ratioP2;P2;SDS_P1;SDS_P2;PMS_P1;PMS_P2;Temp;Humidity;BMP_temperature;BMP_pressure;BME280_temperature;BME280_humidity;BME280_pressure;Samples;Min_cycle;Max_cycle;Signal;HPM_P1;HPM_P2
2021/11/03 00:01:07;;;;;;;21.33;15.68;;;10.10;99.90;;;;;;5027218;28;20577;-72
2021/11/03 00:03:35;;;;;;;22.80;16.08;;;10.00;99.90;;;;;;5033590;28;20713;-72
2021/11/03 00:06:03;;;;;;;21.38;14.07;;;9.90;99.90;;;;;;5032113;28;20200;-72
2021/11/03 00:08:32;;;;;;;18.20;13.32;;;9.90;99.90;;;;;;5028857;28;20211;-72
2021/11/03 00:11:00;;;;;;;17.73;14.80;;;10.00;99.90;;;;;;5031268;28;20226;-72
2021/11/03 00:13:29;;;;;;;22.42;15.10;;;9.90;99.90;;;;;;5023732;28;20231;-72
2021/11/03 00:15:58;;;;;;;19.95;13.80;;;10.00;99.90;;;;;;5033094;28;20651;-72
2021/11/03 00:18:26;;;;;;;21.50;15.07;;;9.90;99.90;;;;;;5034793;28;20727;-72
2021/11/03 00:20:53;;;;;;;20.80;14.48;;;9.80;99.90;;;;;;5035056;28;20219;-72
2021/11/03 00:23:20;;;;;;;24.17;16.25;;;9.80;99.90;;;;;;5037765;28;20220;-72
2021/11/03 00:25:48;;;;;;;19.75;15.30;;;9.70;99.90;;;;;;5029793;28;20197;-72
2021/11/03 00:28:17;;;;;;;18.13;15.05;;;9.70;99.90;;;;;;5042967;28;20196;-72
2021/11/03 00:30:51;;;;;;;18.85;15.30;;;9.60;99.90;;;;;;5043089;28;20230;-72
2021/11/03 00:33:20;;;;;;;17.55;14.32;;;9.60;99.90;;;;;;5041197;28;20220;-72
2021/11/03 00:35:53;;;;;;;18.90;14.23;;;9.60;99.90;;;;;;5042672;28;20203;-72
2021/11/03 00:38:21;;;;;;;23.42;15.43;;;9.60;99.90;;;;;;5043157;28;20584;-73
2021/11/03 00:40:51;;;;;;;20.08;15.15;;;9.60;99.90;;;;;;5041744;28;20219;-73
2021/11/03 00:43:18;;;;;;;24.33;14.95;;;9.60;99.90;;;;;;5036193;28;20228;-73
2021/11/03 00:45:49;;;;;;;18.50;14.95;;;9.60;99.90;;;;;;5035225;28;20200;-72
2021/11/03 00:48:17;;;;;;;16.92;12.65;;;9.60;99.90;;;;;;5034440;28;20202;-72
2021/11/03 00:50:46;;;;;;;20.15;14.73;;;9.70;99.90;;;;;;5034520;28;20212;-71
2021/11/03 00:53:13;;;;;;;21.48;13.55;;;9.60;99.90;;;;;;5028624;28;20224;-72
2021/11/03 00:55:41;;;;;;;16.83;15.02;;;9.60;99.90;;;;;;5034093;28;20295;-72
2021/11/03 00:58:09;;;;;;;26.33;17.23;;;9.60;99.90;;;;;;5034608;28;20258;-72
2021/11/03 01:00:36;;;;;;;17.63;13.20;;;9.60;99.90;;;;;;5034610;28;20195;-72
2021/11/03 01:03:06;;;;;;;21.85;15.90;;;9.50;99.90;;;;;;5033751;28;20224;-73
2021/11/03 01:05:38;;;;;;;22.50;16.73;;;9.50;99.90;;;;;;5034492;28;20208;-73
2021/11/03 01:08:06;;;;;;;20.35;14.27;;;9.50;99.90;;;;;;5030080;28;20291;-73
2021/11/03 01:10:34;;;;;;;23.45;16.92;;;9.50;99.90;;;;;;5034012;28;20743;-72
2021/11/03 01:13:01;;;;;;;23.98;15.57;;;9.60;99.90;;;;;;5034905;28;20246;-73
2021/11/03 01:15:28;;;;;;;24.15;15.90;;;9.40;99.90;;;;;;5034294;28;20212;-72
2021/11/03 01:17:57;;;;;;;21.55;15.15;;;9.40;99.90;;;;;;5036289;28;20196;-73
2021/11/03 01:20:26;;;;;;;19.40;15.27;;;9.40;99.90;;;;;;5030700;28;20303;-73
2021/11/03 01:22:55;;;;;;;22.90;16.80;;;9.40;99.90;;;;;;5036040;28;20259;-73
2021/11/03 01:25:24;;;;;;;28.70;14.85;;;9.40;99.90;;;;;;5040174;28;20204;-73
2021/11/03 01:27:51;;;;;;;20.63;15.23;;;9.50;99.90;;;;;;5037014;28;20197;-71
2021/11/03 01:30:22;;;;;;;21.08;16.15;;;9.50;99.90;;;;;;5034386;28;20216;-73
2021/11/03 01:32:50;;;;;;;20.20;15.05;;;9.60;99.90;;;;;;5033181;28;20317;-72
2021/11/03 01:35:18;;;;;;;20.20;15.55;;;9.50;99.90;;;;;;5040909;28;20283;-73
2021/11/03 01:37:46;;;;;;;22.70;17.05;;;9.50;99.90;;;;;;5029200;28;20208;-72
2021/11/03 01:40:18;;;;;;;19.90;14.93;;;9.50;99.90;;;;;;5033067;28;20207;-72
2021/11/03 01:42:45;;;;;;;23.38;16.75;;;9.40;99.90;;;;;;5037159;28;20712;-73
2021/11/03 01:45:16;;;;;;;20.55;14.05;;;9.40;99.90;;;;;;5032829;28;20200;-71
2021/11/03 01:47:48;;;;;;;21.23;16.65;;;9.40;99.90;;;;;;5035913;28;20211;-72
2021/11/03 01:50:25;;;;;;;23.17;16.65;;;9.50;99.90;;;;;;5034250;28;20200;-73
2021/11/03 01:53:02;;;;;;;21.77;16.05;;;9.40;99.90;;;;;;5036294;28;20216;-73
2021/11/03 01:55:31;;;;;;;25.50;16.20;;;9.40;99.90;;;;;;5035645;28;20257;-73
2021/11/03 01:58:05;;;;;;;22.48;16.00;;;9.30;99.90;;;;;;5035318;28;20204;-72
2021/11/03 02:00:36;;;;;;;22.70;16.67;;;9.30;99.90;;;;;;5037511;28;20274;-72
2021/11/03 02:03:07;;;;;;;22.45;15.93;;;9.20;99.90;;;;;;5034261;28;20228;-73
2021/11/03 02:05:35;;;;;;;21.75;17.13;;;9.20;99.90;;;;;;5032085;28;20196;-72
2021/11/03 02:08:08;;;;;;;23.10;18.10;;;9.30;99.90;;;;;;5038137;28;20195;-73
2021/11/03 02:10:35;;;;;;;24.58;18.70;;;9.30;99.90;;;;;;5039271;28;20209;-73
2021/11/03 02:13:02;;;;;;;27.33;17.50;;;9.40;99.90;;;;;;5034505;28;20306;-73
2021/11/03 02:15:30;;;;;;;29.30;17.95;;;9.50;99.90;;;;;;5031935;28;20211;-73
2021/11/03 02:17:57;;;;;;;24.48;17.35;;;9.30;99.90;;;;;;5039043;28;20210;-72
2021/11/03 02:20:26;;;;;;;23.63;18.88;;;9.30;99.90;;;;;;5031754;28;20205;-73
2021/11/03 02:23:07;;;;;;;22.73;16.25;;;9.30;99.90;;;;;;5039748;28;20224;-72
2021/11/03 02:25:42;;;;;;;24.95;16.70;;;9.40;99.90;;;;;;5031050;28;20213;-72
2021/11/03 02:28:10;;;;;;;23.90;18.85;;;9.50;99.90;;;;;;5041599;28;20261;-72
2021/11/03 02:30:38;;;;;;;25.77;17.95;;;9.40;99.90;;;;;;5046888;28;20216;-72
2021/11/03 02:33:10;;;;;;;25.67;18.10;;;9.40;99.90;;;;;;5031883;28;20219;-73
2021/11/03 02:35:38;;;;;;;24.35;16.77;;;9.40;99.90;;;;;;5036704;28;20200;-72
2021/11/03 02:38:06;;;;;;;26.35;17.92;;;9.50;99.90;;;;;;5038907;28;20283;-73
2021/11/03 02:40:46;;;;;;;22.45;16.92;;;9.50;99.90;;;;;;5033138;28;20201;-71
2021/11/03 02:43:19;;;;;;;25.85;18.15;;;9.50;99.90;;;;;;5029211;28;20219;-72
2021/11/03 02:45:50;;;;;;;31.13;20.30;;;9.50;99.90;;;;;;5041416;28;20543;-71
2021/11/03 02:48:18;;;;;;;32.10;19.85;;;9.50;99.90;;;;;;5031532;28;20204;-72
2021/11/03 02:50:57;;;;;;;26.35;18.00;;;9.50;99.90;;;;;;5020718;28;20209;-72
2021/11/03 02:53:25;;;;;;;22.40;15.45;;;9.50;99.90;;;;;;5029239;28;20223;-73
2021/11/03 02:55:54;;;;;;;30.08;20.45;;;9.50;99.90;;;;;;5025936;28;20686;-72
2021/11/03 02:58:21;;;;;;;30.25;20.05;;;9.60;99.90;;;;;;5026094;28;20219;-72
2021/11/03 03:00:49;;;;;;;28.48;20.27;;;9.60;99.90;;;;;;5027962;28;20247;-72
2021/11/03 03:03:16;;;;;;;24.95;18.45;;;9.60;99.90;;;;;;5027597;28;20315;-72
2021/11/03 03:05:49;;;;;;;29.55;20.88;;;9.60;99.90;;;;;;5023355;28;20210;-72
2021/11/03 03:08:16;;;;;;;25.08;18.65;;;9.60;99.90;;;;;;5027758;28;20207;-72
2021/11/03 03:10:43;;;;;;;28.00;20.33;;;9.60;99.90;;;;;;5031331;28;20741;-72
2021/11/03 03:13:12;;;;;;;28.13;18.90;;;9.60;99.90;;;;;;5029718;28;20227;-73
2021/11/03 03:15:39;;;;;;;30.45;20.05;;;9.40;99.90;;;;;;5038600;28;20210;-72
2021/11/03 03:18:06;;;;;;;29.98;19.35;;;9.50;99.90;;;;;;5021475;28;20201;-71
2021/11/03 03:20:34;;;;;;;30.83;21.52;;;9.40;99.90;;;;;;5025088;28;20275;-73
2021/11/03 03:23:02;;;;;;;29.40;20.67;;;9.40;99.90;;;;;;5028480;28;20705;-73
2021/11/03 03:25:32;;;;;;;29.90;20.65;;;9.40;99.90;;;;;;5031564;28;20208;-72
2021/11/03 03:27:59;;;;;;;30.00;22.08;;;9.30;99.90;;;;;;5026593;28;20201;-72
2021/11/03 03:30:28;;;;;;;32.42;21.75;;;9.30;99.90;;;;;;5037657;28;20193;-73
2021/11/03 03:32:56;;;;;;;30.27;21.95;;;9.40;99.90;;;;;;5032895;28;20227;-72
2021/11/03 03:35:23;;;;;;;29.58;20.50;;;9.30;99.90;;;;;;5031000;28;20578;-73
2021/11/03 03:37:50;;;;;;;34.05;22.15;;;9.20;99.90;;;;;;5037905;28;20205;-73
2021/11/03 03:40:18;;;;;;;29.73;21.48;;;9.20;99.90;;;;;;5024636;28;20200;-72
2021/11/03 03:42:45;;;;;;;30.92;21.10;;;9.20;99.90;;;;;;5032479;28;20224;-73
2021/11/03 03:45:13;;;;;;;30.67;23.48;;;9.10;99.90;;;;;;5033643;28;20200;-72
2021/11/03 03:47:42;;;;;;;33.08;20.58;;;9.00;99.90;;;;;;5035316;28;20688;-73
2021/11/03 03:50:10;;;;;;;33.30;21.38;;;8.90;99.90;;;;;;5033367;28;20219;-73
2021/11/03 03:52:37;;;;;;;33.58;22.30;;;8.90;99.90;;;;;;5038606;28;20603;-72
2021/11/03 03:55:07;;;;;;;29.23;20.77;;;9.00;99.90;;;;;;5033915;28;20675;-72
2021/11/03 03:57:35;;;;;;;31.40;22.98;;;9.00;99.90;;;;;;5032186;28;20685;-72
2021/11/03 04:00:04;;;;;;;26.27;19.30;;;9.00;99.90;;;;;;5032993;28;20582;-72
2021/11/03 04:02:32;;;;;;;25.17;19.60;;;9.00;99.90;;;;;;5028298;28;20223;-72
2021/11/03 04:05:00;;;;;;;26.02;18.60;;;9.00;99.90;;;;;;5030431;28;20201;-73
2021/11/03 04:07:28;;;;;;;30.02;20.98;;;9.10;99.90;;;;;;5033725;28;20215;-72
2021/11/03 04:09:55;;;;;;;34.35;21.85;;;9.10;99.90;;;;;;5035530;28;20214;-72
2021/11/03 04:12:22;;;;;;;31.23;20.75;;;9.00;99.90;;;;;;5040476;28;20232;-73
2021/11/03 04:14:49;;;;;;;34.67;21.52;;;9.00;99.90;;;;;;5043934;28;20206;-72
2021/11/03 04:17:16;;;;;;;34.35;22.00;;;9.00;99.90;;;;;;5037506;28;20196;-73
2021/11/03 04:19:44;;;;;;;30.40;21.45;;;9.10;99.90;;;;;;5037229;28;20204;-72
2021/11/03 04:22:12;;;;;;;29.85;19.73;;;9.10;99.90;;;;;;5036300;28;20255;-73
2021/11/03 04:24:39;;;;;;;31.48;21.23;;;9.10;99.90;;;;;;5039039;28;20200;-72
2021/11/03 04:27:07;;;;;;;28.90;19.23;;;9.10;99.90;;;;;;5034203;28;20207;-71
2021/11/03 04:29:34;;;;;;;29.73;21.02;;;9.10;99.90;;;;;;5043591;28;20210;-72
2021/11/03 04:32:01;;;;;;;32.55;23.05;;;9.10;99.90;;;;;;5044178;28;20318;-72
2021/11/03 04:34:29;;;;;;;34.47;22.73;;;9.00;99.90;;;;;;5035662;28;20200;-71
2021/11/03 04:36:56;;;;;;;30.75;22.20;;;9.00;99.90;;;;;;5034863;28;20204;-72
2021/11/03 04:39:25;;;;;;;32.55;22.80;;;9.00;99.90;;;;;;5035522;28;20200;-73
2021/11/03 04:41:52;;;;;;;32.00;21.27;;;9.00;99.90;;;;;;5039892;28;20215;-73
2021/11/03 04:44:20;;;;;;;36.65;23.38;;;9.00;99.90;;;;;;5045579;28;20224;-73
2021/11/03 04:46:50;;;;;;;31.45;21.88;;;9.20;99.90;;;;;;5041592;28;20287;-74
2021/11/03 04:49:17;;;;;;;37.22;25.33;;;9.00;99.90;;;;;;5043524;28;20204;-73
2021/11/03 04:51:44;;;;;;;36.75;23.70;;;9.00;99.90;;;;;;5042521;28;20216;-70
2021/11/03 04:54:12;;;;;;;40.35;23.50;;;9.00;99.90;;;;;;5045362;28;20204;-69
2021/11/03 04:56:41;;;;;;;39.53;23.90;;;9.00;99.90;;;;;;5049585;28;20671;-69
2021/11/03 04:59:08;;;;;;;36.35;22.73;;;8.90;99.90;;;;;;5048367;28;20208;-70
2021/11/03 05:01:36;;;;;;;38.00;24.58;;;8.80;99.90;;;;;;5040227;28;20206;-72
2021/11/03 05:04:03;;;;;;;39.28;25.95;;;8.80;99.90;;;;;;5037030;28;20215;-72
2021/11/03 05:06:50;;;;;;;41.03;26.15;;;8.70;99.90;;;;;;5043022;28;20203;-72
2021/11/03 05:09:18;;;;;;;35.53;23.17;;;8.80;99.90;;;;;;5033197;28;20200;-72
2021/11/03 05:11:50;;;;;;;39.05;25.45;;;8.80;99.90;;;;;;5035587;28;20215;-71
2021/11/03 05:14:17;;;;;;;42.53;26.42;;;8.70;99.90;;;;;;5030316;28;20548;-72
2021/11/03 05:16:46;;;;;;;46.72;27.38;;;8.60;99.90;;;;;;5035405;28;20207;-73
2021/11/03 05:19:20;;;;;;;41.15;26.92;;;8.60;99.90;;;;;;5043593;28;20207;-72
2021/11/03 05:21:51;;;;;;;43.22;25.60;;;8.70;99.90;;;;;;5036305;28;20669;-72
2021/11/03 05:24:20;;;;;;;36.67;23.75;;;8.60;99.90;;;;;;5030649;28;20241;-73
2021/11/03 05:26:56;;;;;;;43.20;28.52;;;8.60;99.90;;;;;;5037991;28;20642;-72
2021/11/03 05:29:23;;;;;;;38.90;25.60;;;8.50;99.90;;;;;;5032674;28;20227;-71
2021/11/03 05:31:53;;;;;;;40.22;25.05;;;8.60;99.90;;;;;;5033500;28;20232;-73
2021/11/03 05:34:20;;;;;;;42.65;26.63;;;8.70;99.90;;;;;;5032971;28;20207;-72
2021/11/03 05:36:59;;;;;;;45.60;27.95;;;8.70;99.90;;;;;;5033188;28;20208;-71
2021/11/03 05:39:26;;;;;;;52.50;28.77;;;8.60;99.90;;;;;;5038705;28;20200;-72
2021/11/03 05:41:55;;;;;;;40.35;25.70;;;8.60;99.90;;;;;;5032564;28;20573;-72
2021/11/03 05:44:22;;;;;;;44.38;26.88;;;8.70;99.90;;;;;;5031819;28;20655;-71
2021/11/03 05:46:51;;;;;;;48.05;26.75;;;8.60;99.90;;;;;;5032615;28;20210;-72
2021/11/03 05:49:21;;;;;;;47.00;29.85;;;8.70;99.90;;;;;;5035256;28;20201;-72
2021/11/03 05:51:50;;;;;;;50.45;29.98;;;8.70;99.90;;;;;;5030187;28;20675;-72
2021/11/03 05:54:18;;;;;;;44.63;27.55;;;8.70;99.90;;;;;;5032421;28;20200;-72
2021/11/03 05:56:46;;;;;;;41.50;25.40;;;8.60;99.90;;;;;;5031462;28;20207;-72
2021/11/03 05:59:15;;;;;;;45.85;28.75;;;8.70;99.90;;;;;;5033830;28;20196;-72
2021/11/03 06:01:43;;;;;;;47.80;27.67;;;8.80;99.90;;;;;;5039060;28;21572;-72
2021/11/03 06:04:10;;;;;;;49.45;28.98;;;8.80;99.90;;;;;;5038233;28;20209;-72
2021/11/03 06:06:37;;;;;;;48.10;30.15;;;8.80;99.90;;;;;;5033104;28;20616;-71
2021/11/03 06:09:07;;;;;;;53.47;30.30;;;8.90;99.90;;;;;;5036810;28;20655;-72
2021/11/03 06:11:38;;;;;;;43.35;27.50;;;8.90;99.90;;;;;;5039331;28;20291;-72
2021/11/03 06:14:05;;;;;;;52.35;30.20;;;8.90;99.90;;;;;;5036155;28;20279;-72
2021/11/03 06:16:35;;;;;;;53.30;32.00;;;8.90;99.90;;;;;;5031716;28;20207;-72
2021/11/03 06:19:04;;;;;;;53.72;32.28;;;8.80;99.90;;;;;;5034037;28;20204;-72
2021/11/03 06:21:32;;;;;;;53.88;35.15;;;8.90;99.90;;;;;;5039529;28;20200;-71
2021/11/03 06:24:00;;;;;;;49.42;28.67;;;8.90;99.90;;;;;;5038579;28;20255;-72
2021/11/03 06:26:27;;;;;;;53.92;30.20;;;8.90;99.90;;;;;;5028712;28;20283;-73
2021/11/03 06:28:55;;;;;;;49.78;29.77;;;8.90;99.90;;;;;;5034681;28;20287;-73
2021/11/03 06:31:22;;;;;;;53.40;30.77;;;8.90;99.90;;;;;;5031995;28;20570;-72
2021/11/03 06:33:51;;;;;;;56.78;31.80;;;8.90;99.90;;;;;;5029722;28;20228;-73
2021/11/03 06:36:19;;;;;;;56.22;32.53;;;8.90;99.90;;;;;;5025363;28;20219;-72
2021/11/03 06:38:48;;;;;;;49.78;29.65;;;8.90;99.90;;;;;;5029169;28;20207;-71
2021/11/03 06:41:16;;;;;;;48.35;29.05;;;9.00;99.90;;;;;;5024344;28;20214;-73
2021/11/03 06:43:44;;;;;;;53.15;32.15;;;9.10;99.90;;;;;;5025375;28;20221;-73
2021/11/03 06:46:12;;;;;;;54.80;30.75;;;9.10;99.90;;;;;;5032662;28;20678;-73
2021/11/03 06:48:40;;;;;;;50.20;31.58;;;9.00;99.90;;;;;;5027856;28;20204;-73
2021/11/03 06:51:09;;;;;;;50.38;31.33;;;9.00;99.90;;;;;;5026945;28;20346;-72
2021/11/03 06:53:37;;;;;;;56.72;32.13;;;9.00;99.90;;;;;;5026422;28;20239;-72
2021/11/03 06:56:05;;;;;;;56.38;32.15;;;9.10;99.90;;;;;;5033609;28;20287;-72
2021/11/03 06:58:32;;;;;;;51.90;30.17;;;9.10;99.90;;;;;;5026970;28;20315;-73
2021/11/03 07:01:08;;;;;;;49.38;30.80;;;9.10;99.90;;;;;;5033141;28;20204;-71
2021/11/03 07:03:37;;;;;;;57.85;35.15;;;9.30;99.90;;;;;;5024091;28;20271;-70
2021/11/03 07:06:05;;;;;;;51.45;32.72;;;9.20;99.90;;;;;;5031768;28;20202;-71
2021/11/03 07:08:34;;;;;;;54.45;33.65;;;9.20;99.90;;;;;;5029410;28;20207;-71
2021/11/03 07:11:02;;;;;;;57.20;35.00;;;9.10;99.90;;;;;;5027722;28;20204;-74
2021/11/03 07:13:30;;;;;;;51.03;28.83;;;9.30;99.90;;;;;;5030674;28;20238;-74
2021/11/03 07:15:58;;;;;;;50.90;33.92;;;9.40;99.90;;;;;;5029141;28;20209;-74
2021/11/03 07:18:26;;;;;;;54.08;33.40;;;9.50;99.90;;;;;;5026345;28;20200;-73
2021/11/03 07:20:53;;;;;;;53.95;34.30;;;9.40;99.90;;;;;;5030904;28;20325;-74
2021/11/03 07:23:23;;;;;;;54.28;34.65;;;9.40;99.90;;;;;;5027032;28;20297;-73
2021/11/03 07:25:52;;;;;;;51.60;33.17;;;9.40;99.90;;;;;;5020868;28;20208;-74
2021/11/03 07:28:20;;;;;;;55.85;35.92;;;9.30;99.90;;;;;;5028754;28;20204;-74
2021/11/03 07:30:47;;;;;;;53.35;33.83;;;9.30;99.90;;;;;;5037521;28;20196;-74
2021/11/03 07:33:16;;;;;;;50.75;32.53;;;9.30;99.90;;;;;;5026612;28;20239;-72
2021/11/03 07:35:44;;;;;;;53.88;32.50;;;9.30;99.90;;;;;;5029787;28;20204;-71
2021/11/03 07:38:12;;;;;;;53.05;32.83;;;9.30;99.90;;;;;;5039159;28;20264;-73
2021/11/03 07:40:41;;;;;;;49.70;34.25;;;9.50;99.90;;;;;;5036100;28;20974;-72
2021/11/03 07:43:13;;;;;;;49.90;32.10;;;9.50;99.90;;;;;;5039898;28;20240;-73
2021/11/03 07:45:45;;;;;;;54.67;34.40;;;9.50;99.90;;;;;;5036199;28;20207;-73
2021/11/03 07:48:13;;;;;;;63.13;34.83;;;9.70;99.90;;;;;;5033652;28;20291;-72
2021/11/03 07:50:43;;;;;;;51.47;35.22;;;9.80;99.90;;;;;;5032247;28;20235;-72
2021/11/03 07:53:14;;;;;;;54.30;33.40;;;9.90;99.90;;;;;;5030511;28;20656;-72
2021/11/03 07:55:44;;;;;;;48.90;32.28;;;9.70;99.90;;;;;;5027815;28;20197;-73
2021/11/03 07:58:15;;;;;;;48.35;31.60;;;9.90;99.90;;;;;;5032435;28;20569;-72
2021/11/03 08:00:42;;;;;;;46.63;30.92;;;10.00;99.90;;;;;;5034891;28;20208;-72
2021/11/03 08:03:10;;;;;;;48.17;32.45;;;10.00;99.90;;;;;;5035057;28;20240;-73
2021/11/03 08:05:37;;;;;;;53.63;33.53;;;10.10;99.90;;;;;;5028276;28;20215;-72
2021/11/03 08:08:10;;;;;;;48.42;33.55;;;10.20;99.90;;;;;;5027691;28;20653;-73
2021/11/03 08:10:38;;;;;;;57.38;34.60;;;10.30;99.90;;;;;;5033668;28;20200;-73
2021/11/03 08:13:06;;;;;;;47.83;32.25;;;10.30;99.90;;;;;;5031888;28;21678;-72
2021/11/03 08:15:34;;;;;;;50.28;31.85;;;10.40;99.90;;;;;;5027437;28;20663;-71
2021/11/03 08:18:02;;;;;;;49.33;34.08;;;10.30;99.90;;;;;;5030528;28;20565;-72
2021/11/03 08:20:29;;;;;;;52.22;35.20;;;10.20;99.90;;;;;;5034419;28;20279;-71
2021/11/03 08:22:59;;;;;;;50.50;31.25;;;10.20;99.90;;;;;;5031865;28;20231;-71
2021/11/03 08:25:27;;;;;;;52.35;33.97;;;10.20;99.90;;;;;;5031622;28;20780;-72
2021/11/03 08:27:54;;;;;;;48.67;33.38;;;10.20;99.90;;;;;;5029744;28;20204;-70
2021/11/03 08:30:22;;;;;;;52.80;35.13;;;10.20;99.90;;;;;;5036732;28;20196;-71
2021/11/03 08:32:53;;;;;;;53.58;33.30;;;10.20;99.90;;;;;;5033844;28;20591;-73
2021/11/03 08:35:22;;;;;;;52.80;32.58;;;10.30;99.90;;;;;;5036159;28;20204;-70
2021/11/03 08:37:51;;;;;;;50.13;31.20;;;10.40;99.90;;;;;;5033823;28;20255;-72
2021/11/03 08:40:21;;;;;;;52.38;32.65;;;10.40;99.90;;;;;;5033271;28;20279;-73
2021/11/03 08:42:53;;;;;;;50.63;32.30;;;10.60;99.90;;;;;;5034230;28;20239;-74
2021/11/03 08:45:21;;;;;;;46.83;32.88;;;10.80;99.90;;;;;;5032648;28;20296;-73
2021/11/03 08:47:53;;;;;;;43.95;30.70;;;10.70;99.90;;;;;;5033240;28;20239;-73
2021/11/03 08:50:23;;;;;;;41.70;29.95;;;10.70;99.90;;;;;;5027846;28;20297;-73
2021/11/03 08:52:52;;;;;;;44.33;30.20;;;10.90;99.90;;;;;;5026965;28;20319;-72
2021/11/03 08:55:20;;;;;;;47.28;30.27;;;10.90;99.90;;;;;;5034091;28;20206;-73
2021/11/03 08:57:48;;;;;;;57.20;31.98;;;11.00;99.90;;;;;;5029165;28;20586;-73
2021/11/03 09:00:20;;;;;;;44.92;30.45;;;10.90;99.90;;;;;;5030833;28;20223;-73
2021/11/03 09:02:47;;;;;;;45.85;30.95;;;11.10;99.90;;;;;;5036681;28;20221;-73
2021/11/03 09:05:16;;;;;;;46.88;30.35;;;11.10;99.90;;;;;;5038503;28;20196;-73
2021/11/03 09:07:44;;;;;;;45.92;29.63;;;11.30;99.90;;;;;;5039066;28;20281;-71
2021/11/03 09:10:13;;;;;;;39.35;26.95;;;11.50;99.90;;;;;;5043236;28;20653;-72
2021/11/03 09:12:42;;;;;;;41.38;28.60;;;11.90;99.90;;;;;;5045344;28;20218;-72
2021/11/03 09:15:10;;;;;;;37.10;25.98;;;12.30;99.90;;;;;;5050290;28;20719;-72
2021/11/03 09:17:38;;;;;;;36.22;26.42;;;12.70;99.90;;;;;;5048722;28;20203;-73
2021/11/03 09:20:10;;;;;;;37.10;26.35;;;13.30;99.90;;;;;;5044760;28;20208;-74
2021/11/03 09:22:39;;;;;;;35.75;25.73;;;13.70;99.90;;;;;;5044463;28;20228;-73
2021/11/03 09:25:08;;;;;;;38.33;28.35;;;14.00;99.90;;;;;;5036480;28;20208;-74
2021/11/03 09:27:36;;;;;;;32.03;25.27;;;13.90;99.90;;;;;;5033378;28;20254;-73
2021/11/03 09:30:05;;;;;;;34.13;25.83;;;14.20;99.90;;;;;;5033915;28;20227;-73
2021/11/03 09:32:39;;;;;;;30.20;24.30;;;14.40;99.90;;;;;;5032738;28;20801;-73
2021/11/03 09:35:07;;;;;;;37.35;24.30;;;14.80;99.90;;;;;;5035946;28;20204;-74
2021/11/03 09:37:37;;;;;;;34.15;24.33;;;15.10;99.90;;;;;;5033237;28;20206;-73
2021/11/03 09:40:08;;;;;;;33.33;25.83;;;15.70;99.90;;;;;;5040654;28;20208;-73
2021/11/03 09:42:37;;;;;;;35.47;24.70;;;15.50;99.90;;;;;;5033209;28;20325;-73
2021/11/03 09:45:13;;;;;;;34.25;25.52;;;15.80;99.90;;;;;;5039396;28;20202;-73
2021/11/03 09:47:57;;;;;;;30.63;23.05;;;15.60;99.90;;;;;;5028927;28;20206;-72
2021/11/03 09:50:26;;;;;;;30.80;23.20;;;16.00;99.90;;;;;;5033117;28;20199;-73
2021/11/03 09:53:29;;;;;;;28.87;21.30;;;16.70;99.00;;;;;;5035419;28;21014;-73
2021/11/03 09:56:01;;;;;;;26.83;19.97;;;17.10;96.80;;;;;;4991587;28;20452;-73
2021/11/03 09:58:57;;;;;;;26.70;20.97;;;17.60;96.40;;;;;;5003019;28;20944;-73
2021/11/03 10:01:39;;;;;;;29.17;21.40;;;17.30;94.80;;;;;;5021122;28;20545;-73
2021/11/03 10:04:42;;;;;;;28.40;21.33;;;17.00;96.50;;;;;;5034230;28;20499;-73
2021/11/03 10:07:18;;;;;;;28.97;21.13;;;16.80;96.60;;;;;;5024687;28;20493;-73
2021/11/03 10:09:45;;;;;;;23.90;18.67;;;16.60;97.00;;;;;;5032600;28;20443;-73
2021/11/03 10:12:17;;;;;;;29.13;21.90;;;16.70;97.10;;;;;;5032383;28;20462;-72
2021/11/03 10:14:44;;;;;;;26.27;20.57;;;16.60;97.00;;;;;;5030531;28;20498;-73
2021/11/03 10:17:25;;;;;;;28.40;20.13;;;16.60;97.20;;;;;;5032696;28;20457;-73
2021/11/03 10:19:53;;;;;;;27.50;20.07;;;16.50;97.50;;;;;;5027681;28;20461;-72
2021/11/03 10:22:32;;;;;;;22.90;16.65;;;16.50;97.00;;;;;;5032985;28;20854;-72
2021/11/03 10:25:16;;;;;;;21.92;17.73;;;16.00;96.60;;;;;;5034743;28;20285;-73
2021/11/03 10:27:47;;;;;;;23.05;16.35;;;15.40;98.30;;;;;;5032842;28;20201;-72
2021/11/03 10:30:24;;;;;;;26.10;18.75;;;15.10;99.40;;;;;;5035068;28;20287;-71
2021/11/03 10:32:52;;;;;;;29.60;21.10;;;14.50;99.90;;;;;;5031874;28;20239;-72
2021/11/03 10:35:26;;;;;;;35.38;22.95;;;13.90;99.90;;;;;;5037330;28;20221;-73
2021/11/03 10:38:01;;;;;;;36.58;23.92;;;13.40;99.90;;;;;;5035681;28;20203;-73
2021/11/03 10:40:32;;;;;;;34.25;23.80;;;13.00;99.90;;;;;;5040784;28;20538;-72
2021/11/03 10:43:03;;;;;;;39.72;26.50;;;12.60;99.90;;;;;;5037700;28;20259;-75
2021/11/03 10:45:32;;;;;;;38.33;24.20;;;12.30;99.90;;;;;;5031586;28;21614;-74
2021/11/03 10:48:23;;;;;;;33.85;24.55;;;12.10;99.90;;;;;;5038913;28;20278;-74
2021/11/03 10:51:17;;;;;;;37.70;26.05;;;12.00;99.90;;;;;;5030824;28;20672;-74
2021/11/03 10:54:04;;;;;;;37.53;24.70;;;12.00;99.90;;;;;;5033345;28;20239;-73
2021/11/03 10:56:34;;;;;;;38.92;26.58;;;11.90;99.90;;;;;;5032364;28;20194;-73
2021/11/03 10:59:28;;;;;;;45.35;28.08;;;11.80;99.90;;;;;;5032109;28;20549;-73
2021/11/03 11:01:56;;;;;;;38.70;26.05;;;11.80;99.90;;;;;;5033346;28;20619;-73
2021/11/03 11:04:30;;;;;;;43.78;28.33;;;11.90;99.90;;;;;;5033325;28;20198;-74
2021/11/03 11:07:00;;;;;;;35.35;24.00;;;12.00;99.90;;;;;;5032719;28;20225;-74
2021/11/03 11:09:36;;;;;;;37.65;26.30;;;12.00;99.90;;;;;;5033080;28;20217;-72
2021/11/03 11:12:21;;;;;;;33.67;23.63;;;12.00;99.90;;;;;;5036735;28;20280;-73
2021/11/03 11:14:52;;;;;;;36.85;23.55;;;11.90;99.90;;;;;;5038517;28;20232;-72
2021/11/03 11:17:27;;;;;;;32.25;23.55;;;12.00;99.90;;;;;;5037094;28;20194;-72
2021/11/03 11:20:06;;;;;;;36.70;24.73;;;12.00;99.90;;;;;;5035702;28;20285;-72
2021/11/03 11:22:50;;;;;;;38.13;24.90;;;12.00;99.90;;;;;;5035089;28;20226;-73
2021/11/03 11:25:21;;;;;;;39.03;25.25;;;12.10;99.90;;;;;;5030173;28;20207;-72
2021/11/03 11:28:04;;;;;;;37.15;25.08;;;12.10;99.90;;;;;;5033718;28;20684;-72
2021/11/03 11:30:45;;;;;;;40.22;26.67;;;12.10;99.90;;;;;;5035275;28;20206;-72
2021/11/03 11:33:22;;;;;;;36.88;24.98;;;12.00;99.90;;;;;;5042799;28;20223;-71
2021/11/03 11:36:02;;;;;;;38.17;25.70;;;11.90;99.90;;;;;;5035543;28;20234;-72
2021/11/03 11:38:40;;;;;;;35.97;22.70;;;11.80;99.90;;;;;;5042764;28;20205;-72
2021/11/03 11:41:16;;;;;;;35.53;24.73;;;11.90;99.90;;;;;;5030704;28;20224;-72
2021/11/03 11:43:50;;;;;;;43.22;25.20;;;11.80;99.90;;;;;;5035975;28;20219;-73
2021/11/03 11:46:21;;;;;;;43.38;27.05;;;11.80;99.90;;;;;;5033355;28;20205;-73
2021/11/03 11:48:52;;;;;;;37.60;24.23;;;11.80;99.90;;;;;;5035013;28;20203;-73
2021/11/03 11:51:25;;;;;;;35.25;24.40;;;11.80;99.90;;;;;;5036210;28;20346;-73
2021/11/03 11:54:19;;;;;;;41.13;24.98;;;11.90;99.90;;;;;;5033395;28;20738;-74
2021/11/03 11:57:06;;;;;;;38.00;25.70;;;11.80;99.90;;;;;;5030957;28;20198;-72
2021/11/03 12:00:10;;;;;;;36.17;24.38;;;11.80;99.90;;;;;;5034912;28;20207;-71
2021/11/03 12:03:04;;;;;;;36.58;25.00;;;11.70;99.90;;;;;;5033201;28;20236;-72
2021/11/03 12:06:05;;;;;;;43.30;25.40;;;11.70;99.90;;;;;;5028514;28;20227;-71
2021/11/03 12:09:00;;;;;;;40.72;25.88;;;11.60;99.90;;;;;;5032343;28;20289;-73
2021/11/03 12:11:49;;;;;;;41.78;26.83;;;11.50;99.90;;;;;;5031838;28;20213;-72
2021/11/03 12:14:40;;;;;;;35.50;23.48;;;11.40;99.90;;;;;;5032704;28;20216;-73
2021/11/03 12:17:40;;;;;;;44.58;26.85;;;11.50;99.90;;;;;;5033322;28;20661;-72
2021/11/03 12:20:40;;;;;;;41.40;26.70;;;11.30;99.90;;;;;;5034265;28;20199;-73
2021/11/03 12:23:48;;;;;;;44.05;24.90;;;11.30;99.90;;;;;;5033498;28;20308;-73
2021/11/03 12:26:47;;;;;;;39.58;25.35;;;11.20;99.90;;;;;;5040209;28;20230;-73
2021/11/03 12:29:39;;;;;;;34.28;24.20;;;11.20;99.90;;;;;;5035116;28;20728;-74
2021/11/03 12:32:24;;;;;;;37.63;24.85;;;11.30;99.90;;;;;;5034707;28;20691;-73
2021/11/03 12:34:51;;;;;;;41.38;25.23;;;11.40;99.90;;;;;;5035739;28;20215;-74
2021/11/03 12:37:36;;;;;;;38.03;24.92;;;11.40;99.90;;;;;;5035940;28;20214;-72
2021/11/03 12:40:28;;;;;;;43.22;27.38;;;11.50;99.90;;;;;;5035202;28;20206;-73
2021/11/03 12:43:11;;;;;;;35.80;24.70;;;11.40;99.90;;;;;;5024726;28;20700;-73
2021/11/03 12:45:41;;;;;;;43.45;26.30;;;11.40;99.90;;;;;;5033714;28;20659;-73
2021/11/03 12:48:19;;;;;;;36.20;24.48;;;11.50;99.90;;;;;;5033382;28;20210;-73
2021/11/03 12:50:46;;;;;;;37.58;25.05;;;11.50;99.90;;;;;;5032818;28;20194;-73
2021/11/03 12:53:19;;;;;;;34.58;22.50;;;11.50;99.90;;;;;;5036482;28;20224;-73
2021/11/03 12:55:59;;;;;;;38.33;27.27;;;11.50;99.90;;;;;;5034405;28;20565;-73